Time;durP1;ratioP1;P1;durP2;ratioP2;P2;SDS_P1;SDS_P2;PMS_P1;PMS_P2;Temp;Humidity;BMP_temperature;BMP_pressure;BME280_temperature;BME280_humidity;BME280_pressure;Samples;Min_cycle;Max_cycle;Signal;HPM_P1;HPM_P2
2022/07/16 00:03:06;;;;;;;6.05;1.65;;;;;;;18.57;51.16;101059.09;5072454;28;20031;-71
2022/07/16 00:05:31;;;;;;;3.40;1.73;;;;;;;18.47;51.43;101054.69;5075783;28;20037;-71
2022/07/16 00:07:57;;;;;;;2.97;1.60;;;;;;;18.41;51.23;101050.38;5075673;28;20063;-71
2022/07/16 00:10:23;;;;;;;3.78;1.48;;;;;;;18.39;51.85;101058.34;5074258;28;20040;-71
2022/07/16 00:12:49;;;;;;;4.30;1.75;;;;;;;18.38;51.62;101059.47;5075604;28;20082;-71
2022/07/16 00:15:14;;;;;;;6.57;1.80;;;;;;;18.31;51.87;101062.81;5074396;28;20048;-71
2022/07/16 00:17:40;;;;;;;3.33;1.67;;;;;;;18.29;51.75;101064.28;5079340;28;20473;-71
2022/07/16 00:20:06;;;;;;;6.03;2.05;;;;;;;18.18;52.50;101066.63;5072923;28;20032;-71
2022/07/16 00:22:31;;;;;;;3.97;1.88;;;;;;;18.23;51.91;101069.25;5079591;28;20040;-71
2022/07/16 00:24:57;;;;;;;7.63;1.90;;;;;;;18.21;51.88;101068.75;5079997;28;20028;-71
2022/07/16 00:27:22;;;;;;;7.35;1.92;;;;;;;18.25;51.45;101068.94;5079253;28;20024;-71
2022/07/16 00:29:48;;;;;;;4.13;1.95;;;;;;;18.20;51.63;101060.69;5111924;28;20028;-71
2022/07/16 00:32:14;;;;;;;3.55;1.65;;;;;;;18.24;51.25;101072.91;5079719;28;20021;-71
2022/07/16 00:34:40;;;;;;;3.63;1.48;;;;;;;18.24;51.34;101064.47;5078171;28;20039;-71
2022/07/16 00:37:05;;;;;;;3.70;1.88;;;;;;;18.20;51.44;101060.69;5079397;28;20024;-71
2022/07/16 00:39:31;;;;;;;2.78;1.70;;;;;;;18.15;51.46;101064.47;5079626;28;20028;-71
2022/07/16 00:41:57;;;;;;;5.05;1.90;;;;;;;18.01;52.62;101072.25;5079384;28;20032;-71
2022/07/16 00:44:22;;;;;;;3.63;1.73;;;;;;;18.01;52.43;101067.44;5078939;28;20024;-71
2022/07/16 00:46:48;;;;;;;3.47;1.77;;;;;;;17.97;52.47;101066.47;5078983;28;20405;-71
2022/07/16 00:49:13;;;;;;;3.92;1.60;;;;;;;18.00;51.88;101071.44;5079176;28;20064;-71
2022/07/16 00:51:49;;;;;;;3.30;1.65;;;;;;;18.00;51.81;101068.63;5077629;28;20028;-71
2022/07/16 00:54:14;;;;;;;3.55;1.70;;;;;;;18.02;51.42;101069.09;5077930;28;20366;-71
2022/07/16 00:56:40;;;;;;;4.40;1.70;;;;;;;17.98;51.50;101070.94;5060727;28;20138;-71
2022/07/16 00:59:05;;;;;;;4.93;1.90;;;;;;;18.00;51.61;101068.63;5071996;28;20036;-71
2022/07/16 01:01:31;;;;;;;5.53;1.95;;;;;;;17.99;51.30;101072.56;5078468;28;20029;-71
2022/07/16 01:03:56;;;;;;;4.40;2.08;;;;;;;17.99;51.28;101078.19;5078900;28;20056;-71
2022/07/16 01:06:23;;;;;;;6.70;1.83;;;;;;;17.97;51.57;101074.91;5060820;28;20036;-71
2022/07/16 01:08:48;;;;;;;4.35;1.63;;;;;;;17.96;51.63;101064.81;5070046;28;20649;-71
2022/07/16 01:11:16;;;;;;;4.00;1.65;;;;;;;17.91;51.42;101064.97;5075396;28;20105;-71
2022/07/16 01:13:43;;;;;;;3.40;1.50;;;;;;;17.86;51.98;101070.78;5077182;28;20030;-71
2022/07/16 01:16:09;;;;;;;3.20;1.60;;;;;;;17.85;51.50;101077.53;5077658;28;20036;-71
2022/07/16 01:18:35;;;;;;;3.05;1.35;;;;;;;17.84;51.26;101070.25;5075597;28;20040;-71
2022/07/16 01:21:01;;;;;;;3.42;1.85;;;;;;;17.84;51.38;101067.47;5057502;28;20104;-71
2022/07/16 01:23:26;;;;;;;3.47;1.73;;;;;;;17.82;51.21;101064.16;5078236;28;20130;-71
2022/07/16 01:25:52;;;;;;;7.68;1.80;;;;;;;17.80;51.36;101070.09;5078582;28;20090;-71
2022/07/16 01:28:18;;;;;;;4.18;1.60;;;;;;;17.79;51.61;101064.81;5076877;28;20035;-71
2022/07/16 01:30:43;;;;;;;2.15;1.45;;;;;;;17.77;51.15;101070.72;5076790;28;20049;-71
2022/07/16 01:33:25;;;;;;;3.60;1.67;;;;;;;17.73;51.19;101068.91;5060796;28;20032;-71
2022/07/16 01:35:55;;;;;;;2.22;1.33;;;;;;;17.74;51.59;101070.56;5077581;28;20031;-71
2022/07/16 01:38:21;;;;;;;2.45;1.50;;;;;;;17.78;51.09;101071.56;5061158;28;20025;-71
2022/07/16 01:40:46;;;;;;;3.38;1.30;;;;;;;17.73;51.29;101066.91;5077159;28;20119;-71
2022/07/16 01:43:16;;;;;;;3.03;1.48;;;;;;;17.68;51.47;101067.06;5077909;28;20040;-71
2022/07/16 01:45:42;;;;;;;4.15;1.63;;;;;;;17.65;51.52;101074.19;5067118;28;20434;-71
2022/07/16 01:48:07;;;;;;;2.95;1.40;;;;;;;17.62;51.90;101074.84;5053058;28;20036;-71
2022/07/16 01:50:32;;;;;;;4.70;1.55;;;;;;;17.62;51.61;101065.59;5077855;28;20036;-71
2022/07/16 01:52:58;;;;;;;4.18;1.77;;;;;;;17.55;52.43;101062.41;5077980;28;20485;-71
2022/07/16 01:55:24;;;;;;;2.92;1.50;;;;;;;17.47;52.74;101061.28;5077915;28;20043;-71
2022/07/16 01:57:49;;;;;;;3.83;1.75;;;;;;;17.41;52.63;101052.19;5076275;28;20182;-71
2022/07/16 02:00:15;;;;;;;3.05;1.50;;;;;;;17.41;52.82;101057.78;5073364;28;20028;-71
2022/07/16 02:02:40;;;;;;;2.95;1.80;;;;;;;17.46;52.55;101053.97;5077947;28;20036;-71
2022/07/16 02:05:06;;;;;;;3.30;1.60;;;;;;;17.41;53.02;101056.94;5077862;28;20097;-71
2022/07/16 02:07:32;;;;;;;2.42;1.60;;;;;;;17.37;52.80;101061.56;5077634;28;20033;-71
2022/07/16 02:09:57;;;;;;;4.07;1.67;;;;;;;17.34;53.29;101051.81;5077643;28;20028;-71
2022/07/16 02:12:23;;;;;;;4.28;1.60;;;;;;;17.33;52.63;101060.59;5076634;28;20043;-71
2022/07/16 02:14:48;;;;;;;4.82;1.98;;;;;;;17.25;52.91;101061.38;5076508;28;20032;-71
2022/07/16 02:17:13;;;;;;;2.55;1.58;;;;;;;17.28;52.55;101057.94;5076369;28;20033;-71
2022/07/16 02:19:39;;;;;;;3.17;1.67;;;;;;;17.28;52.91;101061.56;5074665;28;20021;-71
2022/07/16 02:22:06;;;;;;;5.47;1.90;;;;;;;17.19;53.55;101055.91;5077279;28;20031;-71
2022/07/16 02:24:32;;;;;;;3.38;1.75;;;;;;;17.18;53.40;101056.22;5059530;28;20037;-71
2022/07/16 02:26:57;;;;;;;2.58;1.70;;;;;;;17.15;53.73;101059.69;5059662;28;20089;-71
2022/07/16 02:29:23;;;;;;;3.17;1.65;;;;;;;17.10;54.16;101055.03;5064565;28;20525;-71
2022/07/16 02:31:48;;;;;;;6.80;2.00;;;;;;;17.06;53.97;101059.66;5077146;28;20031;-71
2022/07/16 02:34:14;;;;;;;2.72;1.63;;;;;;;17.02;54.38;101064.28;5077106;28;20485;-71
2022/07/16 02:36:39;;;;;;;3.83;1.60;;;;;;;17.03;54.29;101060.31;5076374;28;20508;-71
2022/07/16 02:39:05;;;;;;;3.05;1.70;;;;;;;17.02;53.87;101061.47;5075268;28;20025;-71
2022/07/16 02:41:30;;;;;;;4.43;1.40;;;;;;;17.02;54.16;101060.63;5075980;28;20036;-71
2022/07/16 02:43:56;;;;;;;4.22;1.80;;;;;;;17.00;54.43;101060.97;5076694;28;20025;-71
2022/07/16 02:46:21;;;;;;;5.57;2.15;;;;;;;16.92;55.69;101065.38;5075552;28;20036;-71
2022/07/16 02:48:46;;;;;;;2.75;1.60;;;;;;;16.88;55.73;101055.97;5076261;28;20031;-71
2022/07/16 02:51:12;;;;;;;5.35;1.88;;;;;;;16.87;56.08;101053.47;5076807;28;20473;-71
2022/07/16 02:53:37;;;;;;;4.03;1.77;;;;;;;16.79;55.80;101048.66;5076505;28;20039;-71
2022/07/16 02:56:03;;;;;;;4.85;2.03;;;;;;;16.75;56.04;101057.69;5076760;28;20039;-71
2022/07/16 02:58:29;;;;;;;3.55;1.98;;;;;;;16.78;55.87;101058.22;5076029;28;20071;-71
2022/07/16 03:00:54;;;;;;;5.15;1.60;;;;;;;16.78;56.17;101058.22;5077009;28;20036;-71
2022/07/16 03:03:20;;;;;;;2.40;1.58;;;;;;;16.82;55.19;101065.66;5076374;28;20587;-71
2022/07/16 03:05:45;;;;;;;3.90;1.65;;;;;;;16.67;56.73;101060.44;5075252;28;20036;-71
2022/07/16 03:08:11;;;;;;;4.22;1.63;;;;;;;16.69;55.53;101061.78;5076264;28;20033;-71
2022/07/16 03:10:36;;;;;;;4.65;1.63;;;;;;;16.70;55.95;101063.44;5076601;28;20086;-72
2022/07/16 03:13:02;;;;;;;3.13;1.80;;;;;;;16.73;55.60;101059.97;5076194;28;20385;-71
2022/07/16 03:15:27;;;;;;;6.22;1.70;;;;;;;16.69;55.89;101059.00;5075125;28;20047;-71
2022/07/16 03:17:53;;;;;;;2.05;1.38;;;;;;;16.71;55.52;101061.44;5072356;28;20112;-71
2022/07/16 03:20:18;;;;;;;3.95;1.60;;;;;;;16.69;54.76;101061.78;5069110;28;20501;-71
2022/07/16 03:22:44;;;;;;;4.35;1.88;;;;;;;16.63;55.67;101065.88;5075995;28;20094;-71
2022/07/16 03:25:10;;;;;;;2.20;1.70;;;;;;;16.69;55.00;101061.78;5076486;28;20039;-71
2022/07/16 03:27:36;;;;;;;2.78;1.50;;;;;;;16.68;54.64;101065.72;5076255;28;20029;-71
2022/07/16 03:30:01;;;;;;;3.13;1.65;;;;;;;16.69;54.64;101059.00;5076210;28;20067;-71
2022/07/16 03:32:27;;;;;;;3.45;1.60;;;;;;;16.64;54.67;101058.28;5074977;28;20039;-71
2022/07/16 03:34:52;;;;;;;3.35;1.70;;;;;;;16.61;54.94;101058.94;5075972;28;20436;-71
2022/07/16 03:37:17;;;;;;;4.93;1.65;;;;;;;16.59;55.04;101064.84;5076128;28;20032;-71
2022/07/16 03:39:43;;;;;;;4.97;1.65;;;;;;;16.57;54.90;101060.72;5075882;28;20024;-71
2022/07/16 03:42:08;;;;;;;3.65;1.70;;;;;;;16.57;54.83;101060.72;5075662;28;20082;-71
2022/07/16 03:44:34;;;;;;;4.38;1.83;;;;;;;16.53;55.00;101060.53;5075917;28;20039;-71
2022/07/16 03:47:00;;;;;;;2.97;1.50;;;;;;;16.50;55.14;101062.00;5075930;28;20028;-71
2022/07/16 03:49:25;;;;;;;4.25;1.30;;;;;;;16.50;55.34;101061.19;5075646;28;20074;-71
2022/07/16 03:51:50;;;;;;;3.22;1.58;;;;;;;16.47;55.31;101062.66;5074254;28;20028;-71
2022/07/16 03:54:16;;;;;;;3.30;1.58;;;;;;;16.48;54.99;101063.47;5075617;28;20040;-71
2022/07/16 03:56:41;;;;;;;4.45;1.50;;;;;;;16.47;55.17;101056.22;5075706;28;20106;-71
2022/07/16 03:59:07;;;;;;;3.47;1.50;;;;;;;16.42;55.54;101056.34;5075522;28;20021;-71
2022/07/16 04:01:32;;;;;;;2.35;1.38;;;;;;;16.42;55.42;101059.16;5075973;28;20029;-71
2022/07/16 04:03:58;;;;;;;4.53;1.88;;;;;;;16.35;55.66;101059.59;5075663;28;20028;-71
2022/07/16 04:06:24;;;;;;;3.03;1.65;;;;;;;16.37;55.67;101062.09;5075534;28;20059;-71
2022/07/16 04:08:49;;;;;;;4.43;2.08;;;;;;;16.36;55.72;101061.25;5054684;28;20082;-71
2022/07/16 04:11:15;;;;;;;5.43;1.90;;;;;;;16.33;55.89;101055.47;5073961;28;20040;-71
2022/07/16 04:13:40;;;;;;;5.18;2.03;;;;;;;16.27;56.32;101054.78;5074315;28;20032;-71
2022/07/16 04:16:06;;;;;;;4.40;1.60;;;;;;;16.31;56.07;101053.81;5076079;28;20453;-71
2022/07/16 04:18:32;;;;;;;2.70;1.35;;;;;;;16.30;55.96;101048.53;5071804;28;20041;-71
2022/07/16 04:20:57;;;;;;;3.20;1.70;;;;;;;16.25;55.86;101054.25;5072146;28;20037;-71
2022/07/16 04:23:22;;;;;;;3.55;1.77;;;;;;;16.25;55.68;101065.47;5075522;28;20028;-71
2022/07/16 04:25:48;;;;;;;2.58;1.60;;;;;;;16.22;56.09;101063.31;5074426;28;20477;-71
2022/07/16 04:28:13;;;;;;;3.47;1.65;;;;;;;16.18;56.11;101071.50;5075366;28;20268;-71
2022/07/16 04:30:39;;;;;;;3.15;1.63;;;;;;;16.16;55.98;101076.63;5075189;28;20024;-71
2022/07/16 04:33:05;;;;;;;3.03;1.70;;;;;;;16.16;56.08;101071.03;5075791;28;20028;-71
2022/07/16 04:35:30;;;;;;;2.72;1.60;;;;;;;16.17;56.11;101071.84;5075528;28;20034;-71
2022/07/16 04:37:55;;;;;;;3.17;1.50;;;;;;;16.17;56.11;101074.66;5075441;28;20029;-71
2022/07/16 04:40:21;;;;;;;4.93;1.55;;;;;;;16.23;56.45;101073.38;5075380;28;20389;-71
2022/07/16 04:42:46;;;;;;;3.28;1.73;;;;;;;16.24;56.24;101070.25;5066188;28;20028;-71
2022/07/16 04:45:13;;;;;;;3.10;1.52;;;;;;;16.24;56.59;101066.59;5073336;28;20033;-71
2022/07/16 04:47:39;;;;;;;2.25;1.60;;;;;;;16.27;55.93;101069.63;5075325;28;20036;-71
2022/07/16 04:50:05;;;;;;;3.33;1.58;;;;;;;16.30;56.55;101071.78;5074177;28;20041;-71
2022/07/16 04:52:31;;;;;;;3.05;1.70;;;;;;;16.36;56.19;101071.66;5075613;28;20036;-71
2022/07/16 04:54:57;;;;;;;4.50;1.50;;;;;;;16.41;56.14;101071.50;5075185;28;20031;-71
2022/07/16 04:57:24;;;;;;;3.35;1.60;;;;;;;16.45;56.29;101070.53;5074855;28;20574;-71
2022/07/16 04:59:50;;;;;;;2.75;1.63;;;;;;;16.50;56.54;101078.84;5071039;28;20501;-71
2022/07/16 05:04:59;;;;;;;3.60;1.80;;;;;;;16.61;55.50;101073.78;5076691;28;20033;-71
2022/07/16 05:07:25;;;;;;;4.07;1.60;;;;;;;16.69;55.65;101070.19;5078765;28;20477;-71
2022/07/16 05:09:50;;;;;;;4.95;1.83;;;;;;;16.72;55.59;101080.78;5078763;28;20028;-71
2022/07/16 05:12:15;;;;;;;3.72;1.75;;;;;;;16.82;55.21;101078.88;5078625;28;20024;-71
2022/07/16 05:14:41;;;;;;;3.45;1.80;;;;;;;16.88;55.62;101085.97;5060810;28;20492;-72
2022/07/16 05:17:07;;;;;;;5.82;2.08;;;;;;;16.94;55.58;101081.91;5078790;28;20033;-72
2022/07/16 05:19:32;;;;;;;3.35;2.03;;;;;;;16.98;57.56;101080.09;5077356;28;20397;-71
2022/07/16 05:21:57;;;;;;;5.18;2.15;;;;;;;17.02;59.67;101077.47;5077302;28;20029;-72
2022/07/16 05:24:23;;;;;;;3.40;1.88;;;;;;;17.11;59.16;101075.53;5078440;28;20086;-71
2022/07/16 05:26:49;;;;;;;4.70;2.25;;;;;;;17.17;59.04;101077.03;5078389;28;20036;-72
2022/07/16 05:29:15;;;;;;;4.05;1.85;;;;;;;17.27;59.89;101084.31;5077130;28;20040;-72
2022/07/16 05:31:40;;;;;;;6.70;2.03;;;;;;;17.42;60.17;101075.47;5078381;28;20032;-72
2022/07/16 05:34:06;;;;;;;5.28;2.25;;;;;;;17.55;60.05;101068.88;5078173;28;20052;-72
2022/07/16 05:36:31;;;;;;;5.63;2.22;;;;;;;17.68;59.58;101067.06;5078597;28;20033;-72
2022/07/16 05:38:57;;;;;;;6.68;2.42;;;;;;;17.84;59.26;101070.25;5078248;28;20028;-72
2022/07/16 05:41:22;;;;;;;3.88;1.88;;;;;;;17.99;58.15;101075.38;5078328;28;20028;-72
2022/07/16 05:43:48;;;;;;;4.18;1.85;;;;;;;18.16;57.05;101079.34;5077881;28;20028;-71
2022/07/16 05:46:13;;;;;;;6.10;1.88;;;;;;;18.34;57.33;101089.44;5078047;28;20473;-72
2022/07/16 05:48:39;;;;;;;4.53;2.00;;;;;;;18.50;57.27;101087.75;5077511;28;20040;-72
2022/07/16 05:51:04;;;;;;;3.00;1.60;;;;;;;18.69;56.42;101100.59;5078218;28;20032;-72
2022/07/16 05:53:30;;;;;;;6.85;1.95;;;;;;;18.86;56.52;101094.97;5078079;28;20107;-72
2022/07/16 05:55:55;;;;;;;4.72;2.17;;;;;;;19.03;56.04;101094.09;5078091;28;20055;-72
2022/07/16 05:58:20;;;;;;;4.88;1.85;;;;;;;19.22;54.61;101107.72;5077470;28;20055;-72
2022/07/16 06:00:46;;;;;;;5.45;2.00;;;;;;;19.35;53.62;101092.59;5078211;28;20394;-72
2022/07/16 06:03:11;;;;;;;3.85;1.75;;;;;;;19.47;53.42;101089.03;5077630;28;20020;-71
2022/07/16 06:05:37;;;;;;;4.05;1.60;;;;;;;19.66;52.29;101091.44;5077715;28;20028;-71
2022/07/16 06:08:03;;;;;;;5.82;1.83;;;;;;;19.83;52.10;101088.50;5077539;28;20029;-72
2022/07/16 06:10:28;;;;;;;5.38;1.48;;;;;;;20.00;51.93;101081.09;5077532;28;20028;-72
2022/07/16 06:12:54;;;;;;;6.00;2.17;;;;;;;20.09;52.00;101095.97;5077350;28;20032;-71
2022/07/16 06:15:19;;;;;;;6.07;1.90;;;;;;;20.23;50.98;101096.50;5075230;28;20040;-72
2022/07/16 06:17:45;;;;;;;2.80;1.50;;;;;;;20.38;50.59;101082.91;5076547;28;20078;-72
2022/07/16 06:20:10;;;;;;;4.43;1.80;;;;;;;20.44;50.18;101085.16;5071561;28;20025;-72
2022/07/16 06:22:36;;;;;;;4.78;1.67;;;;;;;20.60;49.78;101098.66;5075633;28;20056;-72
2022/07/16 06:25:02;;;;;;;4.35;1.80;;;;;;;20.70;49.60;101098.22;5076608;28;20804;-72
2022/07/16 06:27:27;;;;;;;4.57;1.70;;;;;;;20.78;49.50;101090.81;5076988;28;20029;-72
2022/07/16 06:29:53;;;;;;;2.70;1.40;;;;;;;20.99;49.09;101085.91;5077008;28;20063;-72
2022/07/16 06:32:18;;;;;;;3.55;1.70;;;;;;;21.04;48.75;101097.00;5076013;28;20078;-72
2022/07/16 06:34:44;;;;;;;5.63;1.80;;;;;;;21.18;48.71;101096.66;5077510;28;20043;-72
2022/07/16 06:37:09;;;;;;;3.78;1.30;;;;;;;21.31;48.18;101097.47;5072819;28;20520;-72
2022/07/16 06:39:35;;;;;;;4.75;1.42;;;;;;;21.41;47.81;101099.88;5072376;28;20035;-72
2022/07/16 06:42:00;;;;;;;2.55;1.58;;;;;;;21.54;47.76;101103.53;5077048;28;20028;-72
2022/07/16 06:44:26;;;;;;;3.80;1.60;;;;;;;21.62;47.15;101105.41;5092550;28;20032;-72
2022/07/16 06:46:52;;;;;;;3.38;1.23;;;;;;;21.69;47.08;101101.97;5075725;28;20095;-72
2022/07/16 06:49:18;;;;;;;2.80;1.45;;;;;;;21.83;46.88;101114.53;5076880;28;20025;-72
2022/07/16 06:51:44;;;;;;;5.22;1.60;;;;;;;22.01;45.97;101112.28;5075705;28;20508;-72
2022/07/16 06:54:09;;;;;;;2.83;1.20;;;;;;;22.19;45.59;101117.66;5076763;28;20029;-72
2022/07/16 06:56:35;;;;;;;1.80;1.15;;;;;;;22.27;45.22;101114.69;5074841;28;20063;-65
2022/07/16 06:59:00;;;;;;;4.18;1.20;;;;;;;22.36;44.84;101117.38;5073777;28;20056;-72
2022/07/16 07:01:26;;;;;;;3.72;1.20;;;;;;;22.43;44.11;101123.25;5025807;28;20173;-65
2022/07/16 07:03:51;;;;;;;3.75;1.20;;;;;;;22.59;43.79;101119.63;5058710;28;20028;-71
2022/07/16 07:06:17;;;;;;;4.35;1.20;;;;;;;22.61;43.25;101129.41;5076402;28;20106;-72
2022/07/16 07:08:43;;;;;;;5.22;1.60;;;;;;;22.73;42.87;101118.03;5076799;28;20029;-72
2022/07/16 07:11:09;;;;;;;2.95;1.27;;;;;;;22.88;42.46;101124.91;5076583;28;20038;-72
2022/07/16 07:13:37;;;;;;;2.78;1.13;;;;;;;22.90;41.62;101122.53;5108776;28;20087;-76
2022/07/16 07:16:03;;;;;;;2.88;1.13;;;;;;;22.95;41.09;101130.78;5042676;28;20609;-71
2022/07/16 07:18:28;;;;;;;4.05;1.27;;;;;;;23.02;40.47;101126.50;5074607;28;20032;-76
2022/07/16 07:20:54;;;;;;;3.80;1.15;;;;;;;23.11;40.86;101125.13;5090203;28;20750;-72
2022/07/16 07:23:19;;;;;;;3.60;0.98;;;;;;;23.22;39.82;101133.91;5076114;28;20029;-72
2022/07/16 07:25:45;;;;;;;4.15;0.90;;;;;;;23.34;39.37;101133.00;5075530;28;20033;-71
2022/07/16 07:28:10;;;;;;;3.80;1.17;;;;;;;23.43;39.36;101133.66;5075919;28;20661;-71
2022/07/16 07:30:36;;;;;;;1.38;0.90;;;;;;;23.61;38.62;101134.88;5076161;28;20048;-71
2022/07/16 07:33:01;;;;;;;1.67;0.95;;;;;;;23.68;37.46;101131.41;5056888;28;20075;-71
2022/07/16 07:35:27;;;;;;;3.70;1.00;;;;;;;23.85;38.14;101131.03;5058198;28;20031;-71
2022/07/16 07:37:52;;;;;;;4.28;1.10;;;;;;;23.91;37.14;101133.59;5075891;28;20056;-72
2022/07/16 07:40:18;;;;;;;2.30;0.80;;;;;;;24.03;37.20;101139.13;5074515;28;20031;-65
2022/07/16 07:42:43;;;;;;;1.88;0.70;;;;;;;24.17;36.45;101136.59;5048997;28;20434;-65
2022/07/16 07:45:09;;;;;;;3.50;0.80;;;;;;;24.27;36.68;101140.88;5073053;28;20044;-65
2022/07/16 07:47:35;;;;;;;1.67;0.90;;;;;;;24.47;36.53;101133.22;5075945;28;20048;-65
2022/07/16 07:50:03;;;;;;;3.25;0.60;;;;;;;24.50;34.40;101133.28;5058048;28;20035;-65
2022/07/16 07:52:29;;;;;;;4.43;1.00;;;;;;;24.67;35.24;101137.69;5043668;28;20051;-65
2022/07/16 07:54:54;;;;;;;1.90;0.80;;;;;;;24.89;35.94;101126.75;5073700;28;20032;-65
2022/07/16 07:57:19;;;;;;;3.00;0.80;;;;;;;25.05;34.81;101130.28;5062547;28;20094;-65
2022/07/16 07:59:45;;;;;;;3.47;0.80;;;;;;;25.15;34.79;101129.69;5074873;28;20032;-65
2022/07/16 08:02:10;;;;;;;4.07;1.08;;;;;;;25.33;34.35;101127.16;5074722;28;20036;-65
2022/07/16 08:04:36;;;;;;;3.13;0.90;;;;;;;25.41;34.10;101128.13;5041388;28;20033;-66
2022/07/16 08:07:02;;;;;;;3.45;1.00;;;;;;;25.60;34.26;101121.47;5091534;28;20059;-65
2022/07/16 08:09:27;;;;;;;3.03;0.80;;;;;;;25.73;33.88;101127.78;5074648;28;20024;-65
2022/07/16 08:11:53;;;;;;;2.22;0.90;;;;;;;25.96;34.25;101134.25;5074553;28;20028;-65
2022/07/16 08:14:18;;;;;;;5.43;1.00;;;;;;;26.04;33.37;101130.31;5041127;28;20037;-65
2022/07/16 08:16:44;;;;;;;2.15;1.05;;;;;;;26.13;32.76;101126.34;5056816;28;20029;-65
2022/07/16 08:19:09;;;;;;;3.33;0.90;;;;;;;26.20;32.30;101117.94;5073432;28;20033;-65
2022/07/16 08:21:35;;;;;;;4.20;1.00;;;;;;;26.30;33.11;101129.47;5057839;28;20086;-65
2022/07/16 08:26:45;;;;;;;2.13;0.80;;;;;;;26.71;32.86;101131.59;5064754;28;20112;-66
2022/07/16 08:29:10;;;;;;;1.77;0.73;;;;;;;26.86;33.06;101130.56;5089699;28;20032;-65
2022/07/16 08:31:36;;;;;;;1.67;0.80;;;;;;;27.03;32.97;101131.13;5075379;28;20039;-65
2022/07/16 08:34:01;;;;;;;2.83;0.88;;;;;;;27.20;33.49;101129.69;5074225;28;20374;-65
2022/07/16 08:36:27;;;;;;;3.15;1.10;;;;;;;27.22;32.23;101130.94;5041127;28;20040;-65
2022/07/16 08:38:52;;;;;;;2.75;1.02;;;;;;;27.28;32.29;101129.34;5044883;28;20024;-65
2022/07/16 08:41:18;;;;;;;4.07;0.98;;;;;;;27.49;32.01;101127.88;5079850;28;20032;-65
2022/07/16 08:43:43;;;;;;;2.20;1.05;;;;;;;27.57;32.03;101129.59;5058026;28;20037;-65
2022/07/16 08:46:10;;;;;;;2.83;0.93;;;;;;;27.69;32.12;101131.28;5069676;28;20024;-65
2022/07/16 08:48:35;;;;;;;3.25;1.00;;;;;;;27.87;32.05;101134.31;5056061;28;20165;-64
2022/07/16 08:51:01;;;;;;;2.63;0.93;;;;;;;27.96;31.76;101134.78;5044123;28;20032;-65
2022/07/16 08:53:27;;;;;;;3.17;1.23;;;;;;;28.14;32.49;101130.00;5060725;28;20400;-65
2022/07/16 08:55:52;;;;;;;3.85;1.02;;;;;;;28.23;31.74;101121.88;5061585;28;20035;-65
2022/07/16 08:58:18;;;;;;;2.20;0.88;;;;;;;28.32;31.74;101123.53;5077140;28;20044;-65
2022/07/16 09:00:43;;;;;;;2.90;0.93;;;;;;;28.47;30.97;101116.69;5041633;28;20569;-65
2022/07/16 09:03:12;;;;;;;3.22;0.90;;;;;;;28.63;31.26;101122.88;5093164;28;20028;-65
2022/07/16 09:05:38;;;;;;;5.43;1.10;;;;;;;28.76;31.37;101119.66;5077758;28;20083;-65
2022/07/16 09:08:04;;;;;;;3.42;0.90;;;;;;;28.73;30.44;101119.22;5027293;28;20025;-66
2022/07/16 09:10:34;;;;;;;4.30;0.90;;;;;;;28.81;30.65;101116.41;5061168;28;20029;-65
2022/07/16 09:12:59;;;;;;;3.10;0.90;;;;;;;28.94;30.87;101109.06;5060893;28;20086;-66
2022/07/16 09:15:25;;;;;;;4.90;1.25;;;;;;;28.88;30.67;101114.34;5060917;28;20040;-66
2022/07/16 09:18:14;;;;;;;3.90;1.00;;;;;;;29.07;30.98;101110.34;5078798;28;20041;-66
2022/07/16 09:20:49;;;;;;;2.38;1.10;;;;;;;29.09;29.84;101116.47;5055415;28;20028;-66
2022/07/16 09:23:23;;;;;;;3.78;1.00;;;;;;;29.07;30.40;101106.66;5066575;28;20497;-66
2022/07/16 09:25:57;;;;;;;5.40;1.20;;;;;;;29.05;30.06;101112.78;5075980;28;20119;-66
2022/07/16 09:28:23;;;;;;;2.80;1.05;;;;;;;29.22;29.98;101107.47;5061219;28;20054;-66
2022/07/16 09:30:49;;;;;;;2.55;0.90;;;;;;;29.35;30.04;101108.72;5043833;28;20389;-66
2022/07/16 09:33:16;;;;;;;3.00;1.00;;;;;;;29.42;29.97;101105.03;5060649;28;20024;-67
2022/07/16 09:35:42;;;;;;;2.70;1.00;;;;;;;29.47;29.86;101114.00;5049639;28;20485;-66
2022/07/16 09:38:09;;;;;;;4.85;1.05;;;;;;;29.53;30.14;101120.13;5077048;28;20036;-66
2022/07/16 09:40:42;;;;;;;4.00;1.13;;;;;;;29.70;29.84;101122.22;5058230;28;20175;-66
2022/07/16 09:43:11;;;;;;;2.90;1.10;;;;;;;29.60;29.90;101123.00;5053692;28;20029;-66
2022/07/16 09:45:36;;;;;;;4.65;1.10;;;;;;;29.65;29.21;101122.63;5077027;28;20028;-66
2022/07/16 09:48:04;;;;;;;3.95;1.10;;;;;;;29.75;29.41;101118.09;5043430;28;20508;-66
2022/07/16 09:50:36;;;;;;;2.83;1.00;;;;;;;29.83;29.46;101120.53;5059524;28;20042;-66
2022/07/16 09:53:19;;;;;;;3.80;1.10;;;;;;;30.00;29.07;101116.00;5052576;28;20098;-66
2022/07/16 09:55:58;;;;;;;2.97;0.98;;;;;;;30.03;29.15;101112.31;5077264;28;20032;-66
2022/07/16 09:58:24;;;;;;;3.92;1.10;;;;;;;30.16;28.84;101112.69;5059930;28;20408;-66
2022/07/16 10:00:51;;;;;;;2.45;1.10;;;;;;;30.31;28.47;101124.09;5077072;28;20485;-66
2022/07/16 10:03:16;;;;;;;1.73;1.00;;;;;;;30.36;28.66;101117.97;5060077;28;20051;-66
2022/07/16 10:05:42;;;;;;;4.18;1.30;;;;;;;30.45;27.81;101115.44;5060082;28;20053;-66
2022/07/16 10:08:07;;;;;;;4.05;0.95;;;;;;;30.55;28.17;101114.59;5026528;28;20017;-66
2022/07/16 10:10:33;;;;;;;4.10;1.20;;;;;;;30.64;27.69;101106.34;5060254;28;20545;-71
2022/07/16 10:12:58;;;;;;;4.53;1.20;;;;;;;30.84;27.61;101102.97;5049742;28;20112;-67
2022/07/16 10:15:24;;;;;;;2.08;1.02;;;;;;;30.97;27.40;101106.19;5059542;28;20036;-66
2022/07/16 10:17:49;;;;;;;1.77;0.82;;;;;;;31.13;27.71;101097.88;5060001;28;20448;-66
2022/07/16 10:20:18;;;;;;;5.03;1.30;;;;;;;31.20;27.25;101109.28;5057607;28;20107;-68
2022/07/16 10:22:44;;;;;;;1.88;0.95;;;;;;;31.21;26.76;101110.91;5040033;28;20088;-66
2022/07/16 10:25:22;;;;;;;2.33;0.88;;;;;;;31.28;27.36;101099.38;5056466;28;20114;-67
2022/07/16 10:27:47;;;;;;;2.78;1.10;;;;;;;31.30;26.36;101107.56;5042894;28;20080;-67
2022/07/16 10:30:23;;;;;;;4.97;1.35;;;;;;;31.28;26.80;101105.09;5085072;28;20083;-66
2022/07/16 10:33:05;;;;;;;1.52;0.82;;;;;;;31.38;26.38;101107.09;5073503;28;20098;-66
2022/07/16 10:35:47;;;;;;;3.37;1.10;;;;;;;31.49;26.48;101097.59;5072158;28;20036;-66
2022/07/16 10:38:14;;;;;;;3.42;1.17;;;;;;;31.47;26.77;101094.31;5044805;28;20127;-66
2022/07/16 10:40:41;;;;;;;2.15;1.23;;;;;;;31.63;26.31;101094.59;5075738;28;20480;-66
2022/07/16 10:43:15;;;;;;;3.28;1.20;;;;;;;31.80;26.79;101101.38;5040321;28;20087;-66
2022/07/16 10:45:54;;;;;;;3.22;0.82;;;;;;;31.86;26.60;101098.84;5059435;28;20429;-66
2022/07/16 10:48:24;;;;;;;2.67;1.08;;;;;;;31.74;26.86;101109.66;5059219;28;20025;-66
2022/07/16 10:51:18;;;;;;;3.65;1.30;;;;;;;31.90;26.95;101097.59;5059267;28;20043;-66
2022/07/16 10:53:56;;;;;;;2.40;1.05;;;;;;;32.05;26.76;101095.38;5076966;28;20448;-66
2022/07/16 10:56:49;;;;;;;3.22;1.02;;;;;;;32.16;26.72;101096.06;5075699;28;20041;-66
2022/07/16 10:59:19;;;;;;;3.88;0.93;;;;;;;32.04;25.58;101097.44;5058611;28;20036;-66
2022/07/16 11:01:46;;;;;;;3.92;1.13;;;;;;;32.08;25.50;101094.53;5057352;28;20024;-65
2022/07/16 11:04:11;;;;;;;2.53;1.00;;;;;;;32.01;25.17;101085.97;5058696;28;20448;-66
2022/07/16 11:06:37;;;;;;;2.67;1.25;;;;;;;32.11;25.39;101093.66;5071853;28;20028;-65
2022/07/16 11:09:06;;;;;;;5.45;1.20;;;;;;;32.24;25.44;101089.00;5085836;28;20029;-65
2022/07/16 11:11:36;;;;;;;3.35;1.45;;;;;;;32.19;24.88;101089.47;5059146;28;20464;-66
2022/07/16 11:14:02;;;;;;;3.45;1.10;;;;;;;32.28;25.20;101091.81;5076463;28;20032;-67
2022/07/16 11:16:28;;;;;;;3.15;0.98;;;;;;;32.33;25.24;101090.53;5038827;28;20028;-67
2022/07/16 11:19:01;;;;;;;4.13;1.20;;;;;;;32.44;25.69;101094.06;5054671;28;20040;-67
2022/07/16 11:21:27;;;;;;;2.53;1.23;;;;;;;32.44;25.00;101089.13;5076269;28;20028;-67
2022/07/16 11:24:00;;;;;;;6.53;1.40;;;;;;;32.61;25.08;101084.41;5041976;28;20028;-67
2022/07/16 11:26:26;;;;;;;2.80;1.05;;;;;;;32.66;25.33;101095.44;5058725;28;20025;-66
2022/07/16 11:29:00;;;;;;;3.97;1.02;;;;;;;32.68;25.12;101087.19;5042558;28;20385;-66